Time;durP1;ratioP1;P1;durP2;ratioP2;P2;SDS_P1;SDS_P2;PMS_P1;PMS_P2;Temp;Humidity;BMP_temperature;BMP_pressure;BME280_temperature;BME280_humidity;BME280_pressure;Samples;Min_cycle;Max_cycle;Signal;HPM_P1;HPM_P2
2023/06/07 00:00:52;;;;;;;6.80;3.22;;;;;;;;;;5080487;28;20062;-75
2023/06/07 00:03:19;;;;;;;8.88;4.10;;;;;;;;;;5072357;28;20440;-75
2023/06/07 00:05:45;;;;;;;6.53;3.70;;;;;;;;;;5077769;28;20028;-75
2023/06/07 00:08:10;;;;;;;8.98;3.90;;;;;;;;;;5079716;28;20384;-75
2023/06/07 00:10:36;;;;;;;7.88;3.50;;;;;;;;;;5056905;28;20077;-75
2023/06/07 00:13:02;;;;;;;8.63;4.10;;;;;;;;;;5084871;28;20564;-75
2023/06/07 00:15:28;;;;;;;6.72;3.60;;;;;;;;;;5084140;28;20119;-75
2023/06/07 00:17:53;;;;;;;8.50;4.22;;;;;;;;;;5064468;28;20020;-75
2023/06/07 00:20:18;;;;;;;8.52;4.00;;;;;;;;;;5058450;28;20028;-75
2023/06/07 00:22:44;;;;;;;8.60;3.90;;;;;;;;;;5062234;28;20055;-75
2023/06/07 00:25:10;;;;;;;7.47;3.88;;;;;;;;;;5078321;28;20027;-75
2023/06/07 00:27:35;;;;;;;5.57;3.47;;;;;;;;;;5080543;28;20028;-75
2023/06/07 00:30:03;;;;;;;7.65;4.53;;;;;;;;;;5076237;28;20029;-75
2023/06/07 00:32:29;;;;;;;8.77;3.90;;;;;;;;;;5057556;28;20480;-75
2023/06/07 00:34:54;;;;;;;7.75;4.10;;;;;;;;;;5062820;28;20028;-74
2023/06/07 00:37:19;;;;;;;7.25;4.05;;;;;;;;;;5083097;28;20496;-75
2023/06/07 00:39:45;;;;;;;8.32;3.90;;;;;;;;;;5061342;28;20028;-75
2023/06/07 00:42:11;;;;;;;7.30;3.95;;;;;;;;;;5081882;28;20023;-75
2023/06/07 00:44:36;;;;;;;5.95;3.63;;;;;;;;;;5066158;28;20027;-75
2023/06/07 00:47:02;;;;;;;8.10;3.85;;;;;;;;;;5067225;28;20032;-75
2023/06/07 00:49:27;;;;;;;6.13;3.97;;;;;;;;;;5084513;28;20034;-75
2023/06/07 00:51:53;;;;;;;7.57;3.80;;;;;;;;;;5061061;28;20384;-75
2023/06/07 00:54:19;;;;;;;8.77;3.80;;;;;;;;;;5076583;28;20366;-75
2023/06/07 00:56:51;;;;;;;8.02;4.22;;;;;;;;;;5081904;28;20020;-75
2023/06/07 00:59:18;;;;;;;6.45;4.00;;;;;;;;;;5077120;28;20107;-75
2023/06/07 01:01:46;;;;;;;6.75;3.90;;;;;;;;;;5077766;28;20012;-75
2023/06/07 01:04:12;;;;;;;9.27;3.90;;;;;;;;;;5057521;28;20094;-75
2023/06/07 01:06:37;;;;;;;8.00;4.40;;;;;;;;;;5063437;28;20420;-75
2023/06/07 01:09:06;;;;;;;6.93;3.75;;;;;;;;;;5057558;28;20032;-75
2023/06/07 01:11:34;;;;;;;7.13;4.25;;;;;;;;;;5084677;28;20036;-75
2023/06/07 01:14:00;;;;;;;7.82;4.00;;;;;;;;;;5062295;28;20070;-75
2023/06/07 01:16:26;;;;;;;7.25;3.95;;;;;;;;;;5064808;28;20048;-75
2023/06/07 01:18:51;;;;;;;8.23;4.40;;;;;;;;;;5062185;28;20055;-75
2023/06/07 01:21:20;;;;;;;9.38;4.20;;;;;;;;;;5080225;28;20040;-76
2023/06/07 01:23:47;;;;;;;6.68;4.05;;;;;;;;;;5077179;28;20059;-75
2023/06/07 01:26:13;;;;;;;8.73;3.80;;;;;;;;;;5077536;28;20024;-75
2023/06/07 01:28:41;;;;;;;7.38;4.15;;;;;;;;;;5064678;28;20032;-75
2023/06/07 01:31:08;;;;;;;7.03;3.90;;;;;;;;;;5061895;28;20028;-74
2023/06/07 01:33:34;;;;;;;5.75;3.92;;;;;;;;;;5081171;28;20024;-75
2023/06/07 01:36:00;;;;;;;6.32;3.80;;;;;;;;;;5083818;28;20025;-75
2023/06/07 01:38:27;;;;;;;7.25;3.97;;;;;;;;;;5076238;28;20396;-75
2023/06/07 01:40:53;;;;;;;6.13;3.90;;;;;;;;;;5058915;28;20027;-75
2023/06/07 01:43:21;;;;;;;7.20;4.00;;;;;;;;;;5080405;28;20097;-75
2023/06/07 01:45:47;;;;;;;7.25;3.97;;;;;;;;;;5062100;28;20028;-75
2023/06/07 01:48:13;;;;;;;8.57;3.95;;;;;;;;;;5060169;28;20396;-74
2023/06/07 01:50:38;;;;;;;6.82;4.10;;;;;;;;;;5075938;28;20028;-75
2023/06/07 01:53:03;;;;;;;7.65;4.18;;;;;;;;;;5077196;28;20016;-75
2023/06/07 01:55:29;;;;;;;7.65;4.07;;;;;;;;;;5077310;28;20111;-75
2023/06/07 01:58:00;;;;;;;10.10;4.25;;;;;;;;;;5076556;28;20529;-74
2023/06/07 02:00:40;;;;;;;5.93;3.60;;;;;;;;;;5061406;28;21028;-75
2023/06/07 02:03:13;;;;;;;8.20;4.18;;;;;;;;;;5080134;28;20036;-75
2023/06/07 02:05:44;;;;;;;7.78;4.30;;;;;;;;;;5062224;28;20036;-74
2023/06/07 02:08:30;;;;;;;7.53;3.80;;;;;;;;;;5075759;28;20546;-75
2023/06/07 02:10:57;;;;;;;10.60;4.25;;;;;;;;;;5059017;28;20118;-75
2023/06/07 02:13:23;;;;;;;8.32;4.85;;;;;;;;;;5066710;28;20169;-74
2023/06/07 02:15:48;;;;;;;9.02;3.97;;;;;;;;;;5054293;28;20400;-76
2023/06/07 02:18:19;;;;;;;6.95;3.80;;;;;;;;;;5059574;28;20024;-75
2023/06/07 02:20:45;;;;;;;8.43;4.13;;;;;;;;;;5074471;28;20032;-75
2023/06/07 02:23:10;;;;;;;7.90;3.72;;;;;;;;;;5058034;28;20024;-75
2023/06/07 02:25:35;;;;;;;7.32;3.55;;;;;;;;;;5076428;28;20380;-75
2023/06/07 02:28:02;;;;;;;6.45;4.00;;;;;;;;;;5082474;28;20035;-75
2023/06/07 02:30:27;;;;;;;9.02;4.07;;;;;;;;;;5061192;28;20025;-75
2023/06/07 02:32:53;;;;;;;6.38;4.05;;;;;;;;;;5059969;28;20488;-75
2023/06/07 02:35:20;;;;;;;8.88;3.90;;;;;;;;;;5073482;28;20028;-75
2023/06/07 02:37:46;;;;;;;6.38;3.45;;;;;;;;;;5079100;28;20100;-75
2023/06/07 02:40:12;;;;;;;9.10;3.83;;;;;;;;;;5078538;28;20439;-75
2023/06/07 02:42:38;;;;;;;9.75;4.10;;;;;;;;;;5072118;28;20062;-75
2023/06/07 02:45:04;;;;;;;7.35;3.90;;;;;;;;;;5081330;28;20069;-74
2023/06/07 02:47:30;;;;;;;6.63;3.80;;;;;;;;;;5054186;28;20028;-74
2023/06/07 02:49:57;;;;;;;7.57;3.42;;;;;;;;;;5058788;28;20031;-75
2023/06/07 02:52:22;;;;;;;6.97;3.97;;;;;;;;;;5074923;28;20570;-75
2023/06/07 02:54:48;;;;;;;8.18;4.05;;;;;;;;;;5079559;28;20242;-74
2023/06/07 02:57:14;;;;;;;6.32;3.78;;;;;;;;;;5057230;28;20024;-75
2023/06/07 02:59:40;;;;;;;8.05;3.80;;;;;;;;;;5076634;28;20024;-75
2023/06/07 03:02:05;;;;;;;8.73;4.07;;;;;;;;;;5055279;28;20029;-75
2023/06/07 03:04:31;;;;;;;6.95;3.65;;;;;;;;;;5072643;28;20033;-75
2023/06/07 03:06:57;;;;;;;7.05;3.80;;;;;;;;;;5076113;28;20077;-74
2023/06/07 03:09:22;;;;;;;6.50;3.50;;;;;;;;;;5073580;28;20032;-75
2023/06/07 03:11:48;;;;;;;7.90;4.00;;;;;;;;;;5073332;28;20445;-74
2023/06/07 03:14:14;;;;;;;8.35;3.88;;;;;;;;;;5060588;28;20081;-75
2023/06/07 03:16:40;;;;;;;6.60;3.40;;;;;;;;;;5077422;28;20111;-75
2023/06/07 03:19:05;;;;;;;6.20;3.75;;;;;;;;;;5056985;28;20016;-75
2023/06/07 03:21:31;;;;;;;6.75;3.67;;;;;;;;;;5075387;28;20016;-75
2023/06/07 03:23:56;;;;;;;9.13;4.00;;;;;;;;;;5079478;28;20565;-75
2023/06/07 03:26:22;;;;;;;7.35;3.80;;;;;;;;;;5059906;28;20483;-75
2023/06/07 03:28:48;;;;;;;8.20;4.00;;;;;;;;;;5065032;28;20390;-75
2023/06/07 03:31:13;;;;;;;8.57;3.92;;;;;;;;;;5076649;28;20021;-75
2023/06/07 03:33:39;;;;;;;9.68;3.90;;;;;;;;;;5071562;28;20393;-75
2023/06/07 03:36:07;;;;;;;9.63;4.28;;;;;;;;;;5059884;28;20028;-74
2023/06/07 03:38:32;;;;;;;8.32;3.28;;;;;;;;;;5074971;28;20388;-75
2023/06/07 03:40:57;;;;;;;5.30;3.17;;;;;;;;;;5081314;28;20017;-74
2023/06/07 03:43:23;;;;;;;6.13;3.22;;;;;;;;;;5081853;28;20067;-75
2023/06/07 03:45:48;;;;;;;9.55;3.97;;;;;;;;;;5063462;28;20036;-74
2023/06/07 03:48:13;;;;;;;6.38;3.67;;;;;;;;;;5061501;28;20439;-75
2023/06/07 03:50:39;;;;;;;6.35;3.78;;;;;;;;;;5079981;28;20038;-75
2023/06/07 03:53:04;;;;;;;10.90;3.65;;;;;;;;;;5063720;28;20060;-74
2023/06/07 03:55:29;;;;;;;8.00;3.47;;;;;;;;;;5062820;28;20029;-75
2023/06/07 03:57:55;;;;;;;6.85;3.58;;;;;;;;;;5082522;28;20028;-75
2023/06/07 04:00:20;;;;;;;6.43;3.08;;;;;;;;;;5060639;28;20024;-74
2023/06/07 04:02:46;;;;;;;6.85;3.58;;;;;;;;;;5089670;28;20086;-75
2023/06/07 04:05:12;;;;;;;9.55;3.75;;;;;;;;;;5065054;28;20021;-75
2023/06/07 04:07:37;;;;;;;6.32;3.22;;;;;;;;;;5062064;28;20016;-74
2023/06/07 04:10:03;;;;;;;7.85;3.67;;;;;;;;;;5079017;28;20035;-75
2023/06/07 04:12:28;;;;;;;7.10;3.20;;;;;;;;;;5058885;28;20500;-75
2023/06/07 04:14:53;;;;;;;6.47;3.10;;;;;;;;;;5052729;28;20032;-75
2023/06/07 04:17:19;;;;;;;9.82;3.50;;;;;;;;;;5075458;28;20073;-75
2023/06/07 04:19:44;;;;;;;7.80;3.50;;;;;;;;;;5085580;28;20031;-75
2023/06/07 04:22:09;;;;;;;5.65;3.10;;;;;;;;;;5078137;28;20099;-75
2023/06/07 04:24:35;;;;;;;8.38;3.65;;;;;;;;;;5075332;28;20024;-75
2023/06/07 04:27:01;;;;;;;7.57;3.40;;;;;;;;;;5059859;28;20063;-75
2023/06/07 04:29:26;;;;;;;7.32;3.38;;;;;;;;;;5088465;28;20035;-74
2023/06/07 04:31:56;;;;;;;7.63;3.38;;;;;;;;;;5082014;28;20492;-75
2023/06/07 04:34:25;;;;;;;5.18;2.92;;;;;;;;;;5066878;28;20055;-74
2023/06/07 04:36:52;;;;;;;6.22;3.20;;;;;;;;;;5083159;28;20473;-75
2023/06/07 04:39:18;;;;;;;8.35;3.22;;;;;;;;;;5063542;28;20085;-75
2023/06/07 04:41:45;;;;;;;5.35;3.08;;;;;;;;;;5065054;28;20059;-75
2023/06/07 04:44:11;;;;;;;8.00;2.97;;;;;;;;;;5085302;28;20028;-75
2023/06/07 04:46:39;;;;;;;6.60;3.20;;;;;;;;;;5085077;28;20434;-74
2023/06/07 04:49:05;;;;;;;7.35;3.22;;;;;;;;;;5060089;28;20036;-75
2023/06/07 04:51:30;;;;;;;6.97;3.20;;;;;;;;;;5071562;28;20023;-76
2023/06/07 04:53:58;;;;;;;8.32;2.85;;;;;;;;;;5079216;28;20106;-75
2023/06/07 04:56:27;;;;;;;6.97;3.38;;;;;;;;;;5076787;28;20036;-75
2023/06/07 04:58:53;;;;;;;8.13;3.17;;;;;;;;;;5082723;28;20020;-74
2023/06/07 05:01:20;;;;;;;6.95;2.80;;;;;;;;;;5078333;28;20024;-75
2023/06/07 05:03:45;;;;;;;6.22;3.10;;;;;;;;;;5059745;28;20024;-75
2023/06/07 05:06:11;;;;;;;6.85;3.05;;;;;;;;;;5077065;28;20032;-76
2023/06/07 05:08:36;;;;;;;8.77;3.78;;;;;;;;;;5062535;28;20016;-75
2023/06/07 05:11:02;;;;;;;8.00;2.83;;;;;;;;;;5076584;28;20094;-75
2023/06/07 05:13:27;;;;;;;5.30;2.80;;;;;;;;;;5064747;28;20021;-74
2023/06/07 05:15:53;;;;;;;8.98;3.40;;;;;;;;;;5074154;28;20036;-75
2023/06/07 05:18:19;;;;;;;9.23;3.13;;;;;;;;;;5076664;28;20637;-72
2023/06/07 05:20:46;;;;;;;6.75;2.70;;;;;;;;;;5083340;28;20448;-72
2023/06/07 05:23:16;;;;;;;6.10;2.85;;;;;;;;;;5088126;28;20052;-74
2023/06/07 05:25:43;;;;;;;5.97;2.85;;;;;;;;;;5065564;28;20095;-74
2023/06/07 05:28:08;;;;;;;6.30;2.80;;;;;;;;;;5083472;28;20024;-72
2023/06/07 05:30:33;;;;;;;8.52;3.28;;;;;;;;;;5083460;28;20040;-72
2023/06/07 05:32:59;;;;;;;7.18;2.97;;;;;;;;;;5088309;28;20031;-75
2023/06/07 05:35:24;;;;;;;5.90;2.95;;;;;;;;;;5066058;28;20039;-72
2023/06/07 05:37:50;;;;;;;8.65;2.90;;;;;;;;;;5073020;28;20020;-72
2023/06/07 05:40:18;;;;;;;6.32;3.15;;;;;;;;;;5086166;28;20031;-73
2023/06/07 05:42:44;;;;;;;6.32;2.70;;;;;;;;;;5069337;28;20123;-72
2023/06/07 05:45:10;;;;;;;7.30;2.80;;;;;;;;;;5067557;28;20043;-72
2023/06/07 05:47:35;;;;;;;6.50;3.10;;;;;;;;;;5071831;28;20024;-72
2023/06/07 05:50:01;;;;;;;7.40;3.63;;;;;;;;;;5068821;28;20024;-72
2023/06/07 05:52:26;;;;;;;7.22;3.10;;;;;;;;;;5094637;28;20028;-73
2023/06/07 05:54:54;;;;;;;7.20;3.00;;;;;;;;;;5071905;28;20030;-73
2023/06/07 05:57:20;;;;;;;7.63;3.10;;;;;;;;;;5067357;28;20032;-74
2023/06/07 05:59:45;;;;;;;7.20;2.85;;;;;;;;;;5086256;28;20480;-72
2023/06/07 06:02:10;;;;;;;7.15;2.92;;;;;;;;;;5085483;28;20035;-74
2023/06/07 06:04:36;;;;;;;7.53;3.13;;;;;;;;;;5087327;28;20027;-74
2023/06/07 06:07:02;;;;;;;7.00;3.00;;;;;;;;;;5078975;28;20044;-72
2023/06/07 06:09:28;;;;;;;6.95;2.88;;;;;;;;;;5086504;28;20565;-73
2023/06/07 06:11:55;;;;;;;11.07;3.45;;;;;;;;;;5082825;28;20016;-76
2023/06/07 06:14:21;;;;;;;8.07;2.95;;;;;;;;;;5080571;28;20020;-72
2023/06/07 06:16:46;;;;;;;6.97;3.20;;;;;;;;;;5082225;28;20069;-74
2023/06/07 06:19:12;;;;;;;6.20;3.00;;;;;;;;;;5086728;28;20080;-73
2023/06/07 06:21:37;;;;;;;8.35;3.38;;;;;;;;;;5064193;28;20021;-73
2023/06/07 06:24:03;;;;;;;8.50;3.00;;;;;;;;;;5066591;28;20020;-72
2023/06/07 06:26:29;;;;;;;6.43;2.70;;;;;;;;;;5085660;28;20088;-76
2023/06/07 06:28:54;;;;;;;7.40;3.08;;;;;;;;;;5066633;28;20166;-73
2023/06/07 06:31:20;;;;;;;9.07;3.20;;;;;;;;;;5084682;28;20123;-73
2023/06/07 06:33:45;;;;;;;9.43;3.17;;;;;;;;;;5070772;28;20020;-73
2023/06/07 06:36:11;;;;;;;8.30;3.20;;;;;;;;;;5083309;28;20058;-74
2023/06/07 06:38:36;;;;;;;7.22;3.53;;;;;;;;;;5063682;28;20063;-73
2023/06/07 06:41:02;;;;;;;7.05;2.90;;;;;;;;;;5086222;28;20019;-72
2023/06/07 06:43:27;;;;;;;9.02;3.25;;;;;;;;;;5071174;28;20060;-74
2023/06/07 06:45:52;;;;;;;6.90;2.83;;;;;;;;;;5091922;28;20031;-72
2023/06/07 06:48:18;;;;;;;7.35;3.17;;;;;;;;;;5071618;28;20028;-74
2023/06/07 06:50:46;;;;;;;7.88;3.30;;;;;;;;;;5086182;28;20082;-73
2023/06/07 06:53:12;;;;;;;9.23;3.83;;;;;;;;;;5064453;28;20035;-76
2023/06/07 06:55:37;;;;;;;6.32;2.83;;;;;;;;;;5085377;28;20024;-75
2023/06/07 06:58:02;;;;;;;6.60;3.03;;;;;;;;;;5084401;28;20020;-73
2023/06/07 07:00:29;;;;;;;8.50;2.92;;;;;;;;;;5075764;28;20457;-72
2023/06/07 07:02:54;;;;;;;7.40;3.35;;;;;;;;;;5071335;28;20156;-73
2023/06/07 07:05:19;;;;;;;6.38;3.00;;;;;;;;;;5070047;28;20028;-72
2023/06/07 07:07:45;;;;;;;8.27;3.50;;;;;;;;;;5071668;28;20032;-72
2023/06/07 07:10:11;;;;;;;8.60;3.80;;;;;;;;;;5070308;28;20036;-72
2023/06/07 07:12:39;;;;;;;5.38;2.72;;;;;;;;;;5082502;28;20020;-73
2023/06/07 07:15:05;;;;;;;7.65;3.28;;;;;;;;;;5061654;28;20028;-72
2023/06/07 07:17:31;;;;;;;7.20;3.30;;;;;;;;;;5066676;28;20024;-73
2023/06/07 07:19:56;;;;;;;8.85;3.60;;;;;;;;;;5082160;28;20031;-74
2023/06/07 07:22:22;;;;;;;9.82;3.33;;;;;;;;;;5088205;28;20067;-75
2023/06/07 07:24:47;;;;;;;8.75;3.33;;;;;;;;;;5069427;28;20123;-72
2023/06/07 07:27:12;;;;;;;7.05;3.45;;;;;;;;;;5071403;28;20085;-72
2023/06/07 07:29:38;;;;;;;6.55;3.47;;;;;;;;;;5067020;28;20388;-72
2023/06/07 07:32:04;;;;;;;7.45;3.20;;;;;;;;;;5085963;28;20032;-72
2023/06/07 07:34:29;;;;;;;7.78;3.22;;;;;;;;;;5071150;28;20122;-72
2023/06/07 07:36:57;;;;;;;7.25;3.03;;;;;;;;;;5069043;28;20051;-74
2023/06/07 07:39:25;;;;;;;8.25;3.25;;;;;;;;;;5088200;28;20031;-72
2023/06/07 07:41:51;;;;;;;8.18;3.40;;;;;;;;;;5064786;28;20477;-72
2023/06/07 07:44:16;;;;;;;9.25;3.63;;;;;;;;;;5070919;28;20034;-75
2023/06/07 07:46:41;;;;;;;8.57;3.63;;;;;;;;;;5084664;28;20051;-72
2023/06/07 07:49:07;;;;;;;8.00;3.90;;;;;;;;;;5086152;28;20035;-73
2023/06/07 07:51:32;;;;;;;9.40;3.65;;;;;;;;;;5083955;28;20064;-72
2023/06/07 07:53:57;;;;;;;9.23;3.80;;;;;;;;;;5063808;28;20145;-72
2023/06/07 07:56:23;;;;;;;8.38;3.97;;;;;;;;;;5084640;28;20028;-73
2023/06/07 07:58:49;;;;;;;12.85;4.38;;;;;;;;;;5077596;28;20085;-72
2023/06/07 08:01:16;;;;;;;8.07;3.78;;;;;;;;;;5065997;28;20372;-72
2023/06/07 08:03:42;;;;;;;10.30;4.20;;;;;;;;;;5067828;28;20492;-72
2023/06/07 08:06:07;;;;;;;8.75;4.10;;;;;;;;;;5067683;28;20035;-73
2023/06/07 08:08:36;;;;;;;10.25;4.10;;;;;;;;;;5074387;28;20100;-73
2023/06/07 08:11:01;;;;;;;8.50;3.72;;;;;;;;;;5083984;28;20078;-73
2023/06/07 08:13:27;;;;;;;9.25;4.15;;;;;;;;;;5092328;28;20032;-73
2023/06/07 08:15:52;;;;;;;7.68;3.85;;;;;;;;;;5085145;28;20048;-72
2023/06/07 08:18:18;;;;;;;9.95;4.35;;;;;;;;;;5072431;28;20028;-73
2023/06/07 08:20:43;;;;;;;9.50;4.35;;;;;;;;;;5083676;28;20012;-74
2023/06/07 08:23:09;;;;;;;8.45;3.70;;;;;;;;;;5082239;28;20028;-73
2023/06/07 08:25:34;;;;;;;9.70;4.28;;;;;;;;;;5087924;28;20092;-75
2023/06/07 08:28:00;;;;;;;7.93;4.38;;;;;;;;;;5087101;28;20028;-74
2023/06/07 08:30:25;;;;;;;8.80;3.80;;;;;;;;;;5085245;28;20028;-75
2023/06/07 08:32:51;;;;;;;8.88;4.13;;;;;;;;;;5068169;28;20021;-73
2023/06/07 08:35:16;;;;;;;11.77;4.80;;;;;;;;;;5082567;28;20029;-72
2023/06/07 08:37:42;;;;;;;10.13;4.50;;;;;;;;;;5068149;28;20024;-73
2023/06/07 08:40:08;;;;;;;7.82;3.92;;;;;;;;;;5092677;28;20032;-73
2023/06/07 08:42:34;;;;;;;9.10;4.20;;;;;;;;;;5069387;28;20021;-73
2023/06/07 08:45:00;;;;;;;10.43;4.07;;;;;;;;;;5091184;28;20089;-77
2023/06/07 08:47:27;;;;;;;8.05;3.80;;;;;;;;;;5096625;28;20047;-73
2023/06/07 08:49:57;;;;;;;8.57;3.53;;;;;;;;;;5089505;28;20036;-73
2023/06/07 08:52:24;;;;;;;8.82;3.85;;;;;;;;;;5086382;28;20116;-72
2023/06/07 08:54:52;;;;;;;8.02;3.97;;;;;;;;;;5074104;28;20442;-77
2023/06/07 08:57:18;;;;;;;8.00;4.38;;;;;;;;;;5094755;28;20021;-73
2023/06/07 08:59:45;;;;;;;10.32;4.07;;;;;;;;;;5099941;28;20095;-73
2023/06/07 09:02:15;;;;;;;7.55;4.40;;;;;;;;;;5097377;28;20012;-74
2023/06/07 09:04:41;;;;;;;11.73;4.70;;;;;;;;;;5088897;28;20031;-72
2023/06/07 09:07:09;;;;;;;11.73;4.30;;;;;;;;;;5086885;28;20024;-72
2023/06/07 09:09:35;;;;;;;10.52;4.63;;;;;;;;;;5071830;28;20481;-73
2023/06/07 09:12:01;;;;;;;8.88;4.30;;;;;;;;;;5090333;28;20099;-74
2023/06/07 09:14:29;;;;;;;11.48;3.63;;;;;;;;;;5075468;28;20087;-72
2023/06/07 09:16:59;;;;;;;9.70;4.28;;;;;;;;;;5075913;28;20029;-74
2023/06/07 09:19:37;;;;;;;7.18;4.20;;;;;;;;;;5075702;28;20091;-74
2023/06/07 09:22:04;;;;;;;10.15;4.43;;;;;;;;;;5097191;28;20024;-74
2023/06/07 09:24:31;;;;;;;7.45;4.60;;;;;;;;;;5086864;28;20051;-73
2023/06/07 09:26:57;;;;;;;8.68;4.25;;;;;;;;;;5089561;28;20029;-73
2023/06/07 09:29:24;;;;;;;9.50;4.43;;;;;;;;;;5095616;28;20050;-73
2023/06/07 09:31:49;;;;;;;11.07;4.32;;;;;;;;;;5091334;28;20033;-73
2023/06/07 09:34:22;;;;;;;10.30;4.72;;;;;;;;;;5087191;28;20156;-75
2023/06/07 09:36:57;;;;;;;9.93;4.50;;;;;;;;;;5088923;28;20050;-73
2023/06/07 09:39:25;;;;;;;11.05;4.30;;;;;;;;;;5092082;28;20056;-76
2023/06/07 09:41:51;;;;;;;10.25;4.75;;;;;;;;;;5085920;28;20033;-74
2023/06/07 09:44:28;;;;;;;9.77;4.43;;;;;;;;;;5079031;28;20020;-73
2023/06/07 09:46:54;;;;;;;10.40;4.60;;;;;;;;;;5086432;28;20109;-72
2023/06/07 09:49:34;;;;;;;7.22;4.25;;;;;;;;;;5092728;28;20032;-73
2023/06/07 09:52:04;;;;;;;6.30;4.00;;;;;;;;;;5073979;28;20086;-73
2023/06/07 09:54:38;;;;;;;10.10;4.43;;;;;;;;;;5087824;28;20042;-74
2023/06/07 09:57:08;;;;;;;9.55;4.60;;;;;;;;;;5094089;28;20025;-76
2023/06/07 09:59:36;;;;;;;6.93;3.72;;;;;;;;;;5093140;28;20048;-73
2023/06/07 10:02:02;;;;;;;9.38;3.95;;;;;;;;;;5084159;28;20020;-74
2023/06/07 10:04:27;;;;;;;9.93;4.53;;;;;;;;;;5100549;28;20031;-73
2023/06/07 10:06:57;;;;;;;9.38;4.43;;;;;;;;;;5073038;28;20088;-72
2023/06/07 10:09:26;;;;;;;11.68;5.30;;;;;;;;;;5076731;28;20028;-74
2023/06/07 10:11:56;;;;;;;7.68;4.65;;;;;;;;;;5077744;28;20573;-76
2023/06/07 10:14:29;;;;;;;9.82;5.15;;;;;;;;;;5073376;28;20020;-73
2023/06/07 10:17:02;;;;;;;9.27;3.95;;;;;;;;;;5093203;28;20061;-74
2023/06/07 10:19:40;;;;;;;8.93;4.70;;;;;;;;;;5080477;28;20032;-74
2023/06/07 10:22:16;;;;;;;8.27;4.45;;;;;;;;;;5095302;28;20030;-73
2023/06/07 10:25:02;;;;;;;9.38;4.65;;;;;;;;;;5099067;28;20028;-76
2023/06/07 10:27:33;;;;;;;8.38;4.82;;;;;;;;;;5088452;28;20028;-74
2023/06/07 10:30:06;;;;;;;8.07;3.72;;;;;;;;;;5077702;28;20481;-74
2023/06/07 10:32:36;;;;;;;9.70;4.50;;;;;;;;;;5093218;28;20039;-74
2023/06/07 10:35:02;;;;;;;6.45;4.03;;;;;;;;;;5072396;28;20738;-74
2023/06/07 10:37:33;;;;;;;6.65;3.65;;;;;;;;;;5087205;28;20032;-73
2023/06/07 10:40:05;;;;;;;9.98;4.50;;;;;;;;;;5077685;28;20027;-75
2023/06/07 10:42:30;;;;;;;9.73;4.47;;;;;;;;;;5071492;28;20024;-73
2023/06/07 10:44:56;;;;;;;8.18;5.20;;;;;;;;;;5089509;28;20055;-74
2023/06/07 10:47:21;;;;;;;11.60;4.97;;;;;;;;;;5073987;28;20029;-74
2023/06/07 10:49:47;;;;;;;11.93;4.65;;;;;;;;;;5089216;28;20031;-75
2023/06/07 10:52:15;;;;;;;8.90;4.28;;;;;;;;;;5076020;28;20044;-74
2023/06/07 10:54:41;;;;;;;8.30;4.45;;;;;;;;;;5069483;28;20472;-73
2023/06/07 10:57:07;;;;;;;9.55;4.63;;;;;;;;;;5093915;28;20024;-73
2023/06/07 10:59:36;;;;;;;7.63;4.18;;;;;;;;;;5080680;28;20027;-73
2023/06/07 11:02:24;;;;;;;7.55;3.95;;;;;;;;;;5067143;28;20016;-74
2023/06/07 11:05:00;;;;;;;8.20;4.00;;;;;;;;;;5092136;28;20056;-74
2023/06/07 11:07:30;;;;;;;9.43;4.90;;;;;;;;;;5098311;28;20024;-74
2023/06/07 11:10:02;;;;;;;6.47;4.05;;;;;;;;;;5098520;28;20024;-73
2023/06/07 11:12:46;;;;;;;9.35;3.83;;;;;;;;;;5097838;28;20028;-73
2023/06/07 11:15:17;;;;;;;8.68;4.00;;;;;;;;;;5098622;28;20043;-73
2023/06/07 11:17:55;;;;;;;6.85;3.97;;;;;;;;;;5067629;28;20028;-75
2023/06/07 11:20:36;;;;;;;9.23;4.82;;;;;;;;;;5063466;28;20032;-75
2023/06/07 11:23:17;;;;;;;8.40;4.22;;;;;;;;;;5063156;28;20032;-75
2023/06/07 11:25:43;;;;;;;10.00;4.57;;;;;;;;;;5063642;28;20032;-75
2023/06/07 11:28:10;;;;;;;10.38;4.95;;;;;;;;;;5060700;28;20032;-76
2023/06/07 11:30:37;;;;;;;6.25;3.72;;;;;;;;;;5060379;28;20023;-75
2023/06/07 11:33:03;;;;;;;8.88;3.70;;;;;;;;;;5064323;28;20483;-75
2023/06/07 11:35:30;;;;;;;9.65;4.20;;;;;;;;;;5056801;28;20086;-75
2023/06/07 11:37:56;;;;;;;9.05;3.70;;;;;;;;;;5079640;28;20020;-75
2023/06/07 11:40:21;;;;;;;8.02;4.22;;;;;;;;;;5079689;28;20058;-76
2023/06/07 11:42:46;;;;;;;7.13;4.05;;;;;;;;;;5075906;28;20056;-75
2023/06/07 11:45:14;;;;;;;6.97;3.88;;;;;;;;;;5074936;28;20024;-75
2023/06/07 11:47:39;;;;;;;6.97;3.53;;;;;;;;;;5059736;28;20035;-75
2023/06/07 11:50:06;;;;;;;8.13;3.58;;;;;;;;;;5075971;28;20055;-75
2023/06/07 11:52:31;;;;;;;7.65;3.90;;;;;;;;;;5078448;28;20032;-75
2023/06/07 11:54:56;;;;;;;8.43;3.25;;;;;;;;;;5078673;28;20020;-75
2023/06/07 11:57:22;;;;;;;6.32;3.50;;;;;;;;;;5062769;28;20025;-75
2023/06/07 11:59:50;;;;;;;8.90;4.20;;;;;;;;;;5059117;28;20066;-75
2023/06/07 12:02:16;;;;;;;7.55;3.63;;;;;;;;;;5065363;28;20500;-75
2023/06/07 12:04:43;;;;;;;7.00;3.67;;;;;;;;;;5063775;28;20025;-75
2023/06/07 12:07:19;;;;;;;8.85;3.60;;;;;;;;;;5059527;28;20034;-75
2023/06/07 12:09:45;;;;;;;9.02;4.07;;;;;;;;;;5062878;28;20019;-75
2023/06/07 12:12:14;;;;;;;11.15;4.05;;;;;;;;;;5057674;28;20028;-75
2023/06/07 12:14:40;;;;;;;9.55;4.03;;;;;;;;;;5084586;28;20049;-75
2023/06/07 12:17:06;;;;;;;11.75;4.25;;;;;;;;;;5087247;28;20134;-76
2023/06/07 12:19:31;;;;;;;9.27;4.30;;;;;;;;;;5064940;28;20486;-75
2023/06/07 12:22:07;;;;;;;9.48;4.38;;;;;;;;;;5084838;28;20016;-75
2023/06/07 12:24:37;;;;;;;7.38;4.10;;;;;;;;;;5077418;28;20035;-76
2023/06/07 12:27:06;;;;;;;10.07;3.97;;;;;;;;;;5080129;28;20119;-75
2023/06/07 12:29:32;;;;;;;7.93;4.10;;;;;;;;;;5087951;28;20119;-75
2023/06/07 12:32:00;;;;;;;7.53;3.67;;;;;;;;;;5059390;28;20121;-76
2023/06/07 12:34:32;;;;;;;7.65;4.13;;;;;;;;;;5078978;28;20524;-75
2023/06/07 12:36:57;;;;;;;8.95;4.00;;;;;;;;;;5084352;28;20024;-75
2023/06/07 12:39:28;;;;;;;6.78;3.85;;;;;;;;;;5081725;28;20032;-75
2023/06/07 12:41:53;;;;;;;10.38;3.92;;;;;;;;;;5081762;28;20015;-75
2023/06/07 12:44:19;;;;;;;8.68;4.45;;;;;;;;;;5079330;28;20032;-75
2023/06/07 12:46:44;;;;;;;7.00;4.10;;;;;;;;;;5063271;28;20035;-75
2023/06/07 12:49:10;;;;;;;7.57;4.22;;;;;;;;;;5058720;28;20032;-75
2023/06/07 12:51:36;;;;;;;8.05;3.65;;;;;;;;;;5079456;28;20022;-75
2023/06/07 12:54:01;;;;;;;6.13;3.90;;;;;;;;;;5063079;28;20117;-75
2023/06/07 12:56:28;;;;;;;7.70;3.80;;;;;;;;;;5076243;28;20468;-77
2023/06/07 12:58:53;;;;;;;5.35;3.63;;;;;;;;;;5072411;28;20074;-75
2023/06/07 13:01:19;;;;;;;9.52;4.15;;;;;;;;;;5062536;28;20062;-75
2023/06/07 13:03:45;;;;;;;10.70;4.00;;;;;;;;;;5058953;28;20024;-76
2023/06/07 13:06:10;;;;;;;9.30;4.53;;;;;;;;;;5057858;28;20051;-76
2023/06/07 13:08:36;;;;;;;9.18;4.18;;;;;;;;;;5083152;28;20020;-75
2023/06/07 13:11:04;;;;;;;10.65;4.22;;;;;;;;;;5062919;28;20490;-76
2023/06/07 13:13:30;;;;;;;9.10;4.22;;;;;;;;;;5076704;28;20036;-75
2023/06/07 13:15:55;;;;;;;8.82;4.10;;;;;;;;;;5074759;28;20035;-76
2023/06/07 13:18:21;;;;;;;8.35;4.00;;;;;;;;;;5076707;28;20111;-76
2023/06/07 13:20:46;;;;;;;8.90;3.70;;;;;;;;;;5080659;28;20020;-76
2023/06/07 13:23:11;;;;;;;9.80;4.07;;;;;;;;;;5058336;28;20751;-76
2023/06/07 13:25:37;;;;;;;11.32;4.47;;;;;;;;;;5067283;28;20023;-76
2023/06/07 13:28:02;;;;;;;10.07;3.72;;;;;;;;;;5055906;28;20033;-76
2023/06/07 13:30:28;;;;;;;10.02;3.97;;;;;;;;;;5078772;28;20032;-76
2023/06/07 13:32:54;;;;;;;8.57;3.75;;;;;;;;;;5079086;28;20142;-76
2023/06/07 13:35:19;;;;;;;8.45;3.38;;;;;;;;;;5077275;28;20037;-76
2023/06/07 13:37:46;;;;;;;8.63;3.78;;;;;;;;;;5066193;28;20028;-76
2023/06/07 13:40:11;;;;;;;8.52;3.80;;;;;;;;;;5076871;28;20032;-76
2023/06/07 13:42:37;;;;;;;7.60;3.60;;;;;;;;;;5076122;28;20024;-76
2023/06/07 13:45:03;;;;;;;6.75;3.60;;;;;;;;;;5058826;28;20507;-76
2023/06/07 13:47:29;;;;;;;6.45;3.35;;;;;;;;;;5075563;28;20021;-76
2023/06/07 13:49:54;;;;;;;10.07;3.88;;;;;;;;;;5061193;28;20497;-76
2023/06/07 13:52:20;;;;;;;7.93;2.83;;;;;;;;;;5062522;28;20029;-76
2023/06/07 13:54:46;;;;;;;9.48;3.28;;;;;;;;;;5075713;28;20070;-76
2023/06/07 13:57:12;;;;;;;7.85;3.15;;;;;;;;;;5074451;28;20036;-76
2023/06/07 13:59:38;;;;;;;9.18;3.40;;;;;;;;;;5058564;28;20031;-76
2023/06/07 14:02:07;;;;;;;7.95;3.80;;;;;;;;;;5058597;28;20111;-76
2023/06/07 14:04:33;;;;;;;7.40;3.67;;;;;;;;;;5063498;28;20024;-76
2023/06/07 14:06:58;;;;;;;8.45;3.50;;;;;;;;;;5077738;28;20025;-76
2023/06/07 14:09:23;;;;;;;9.50;3.60;;;;;;;;;;5067832;28;20046;-76
2023/06/07 14:11:49;;;;;;;10.27;3.38;;;;;;;;;;5075246;28;20051;-76
2023/06/07 14:14:14;;;;;;;7.45;3.28;;;;;;;;;;5080715;28;20112;-76
2023/06/07 14:16:40;;;;;;;8.02;3.08;;;;;;;;;;5077207;28;20028;-76
2023/06/07 14:19:05;;;;;;;5.63;3.05;;;;;;;;;;5058570;28;20024;-76
2023/06/07 14:21:32;;;;;;;8.70;3.20;;;;;;;;;;5051951;28;20479;-76
2023/06/07 14:23:58;;;;;;;8.00;3.40;;;;;;;;;;5054969;28;20074;-76
2023/06/07 14:26:23;;;;;;;5.50;3.03;;;;;;;;;;5075743;28;20028;-76
2023/06/07 14:28:49;;;;;;;5.75;2.58;;;;;;;;;;5081377;28;20039;-76
2023/06/07 14:31:16;;;;;;;9.93;3.30;;;;;;;;;;5060281;28;20426;-76
2023/06/07 14:33:42;;;;;;;4.43;2.67;;;;;;;;;;5075550;28;20040;-76
2023/06/07 14:36:07;;;;;;;7.28;3.10;;;;;;;;;;5076822;28;20030;-76
2023/06/07 14:38:35;;;;;;;7.15;3.10;;;;;;;;;;5075319;28;20058;-76